sensor_id;sensor_type;location;lat;lon;timestamp;pressure;altitude;pressure_sealevel;temperature;humidity
37904;BME280;23738;50.422;18.758;2023-08-20T00:00:18;98866.26;;;21.33;74.94
37904;BME280;23738;50.422;18.758;2023-08-20T00:02:51;98870.87;;;21.32;75.06
37904;BME280;23738;50.422;18.758;2023-08-20T00:05:24;98871.24;;;21.31;75.05
37904;BME280;23738;50.422;18.758;2023-08-20T00:07:54;98871.84;;;21.28;75.11
37904;BME280;23738;50.422;18.758;2023-08-20T00:10:23;98865.73;;;21.25;75.29
37904;BME280;23738;50.422;18.758;2023-08-20T00:12:52;98866.05;;;21.23;75.18
37904;BME280;23738;50.422;18.758;2023-08-20T00:15:21;98864.04;;;21.20;75.28
37904;BME280;23738;50.422;18.758;2023-08-20T00:17:55;98865.80;;;21.19;75.39
37904;BME280;23738;50.422;18.758;2023-08-20T00:20:26;98862.69;;;21.18;75.51
37904;BME280;23738;50.422;18.758;2023-08-20T00:22:57;98865.27;;;21.18;75.51
37904;BME280;23738;50.422;18.758;2023-08-20T00:25:27;98859.45;;;21.17;75.59
37904;BME280;23738;50.422;18.758;2023-08-20T00:27:56;98857.75;;;21.15;75.54
37904;BME280;23738;50.422;18.758;2023-08-20T00:30:26;98858.39;;;21.13;75.64
37904;BME280;23738;50.422;18.758;2023-08-20T00:32:55;98858.30;;;21.08;75.45
37904;BME280;23738;50.422;18.758;2023-08-20T00:35:25;98857.55;;;21.06;75.58
37904;BME280;23738;50.422;18.758;2023-08-20T00:37:54;98853.77;;;21.04;75.75
37904;BME280;23738;50.422;18.758;2023-08-20T00:40:23;98851.82;;;21.03;75.82
37904;BME280;23738;50.422;18.758;2023-08-20T00:42:52;98850.48;;;21.04;76.02
37904;BME280;23738;50.422;18.758;2023-08-20T00:45:23;98855.35;;;21.02;76.00
37904;BME280;23738;50.422;18.758;2023-08-20T00:47:53;98853.52;;;20.99;76.03
37904;BME280;23738;50.422;18.758;2023-08-20T00:50:24;98852.25;;;20.95;76.04
37904;BME280;23738;50.422;18.758;2023-08-20T00:52:54;98848.31;;;20.93;75.96
37904;BME280;23738;50.422;18.758;2023-08-20T00:55:23;98849.44;;;20.92;76.11
37904;BME280;23738;50.422;18.758;2023-08-20T00:57:52;98844.17;;;20.90;76.16
37904;BME280;23738;50.422;18.758;2023-08-20T01:00:24;98844.42;;;20.88;76.31
37904;BME280;23738;50.422;18.758;2023-08-20T01:02:53;98844.29;;;20.85;76.64
37904;BME280;23738;50.422;18.758;2023-08-20T01:05:23;98843.36;;;20.83;76.52
37904;BME280;23738;50.422;18.758;2023-08-20T01:08:13;98842.73;;;20.83;76.66
37904;BME280;23738;50.422;18.758;2023-08-20T01:10:57;98839.45;;;20.82;76.58
37904;BME280;23738;50.422;18.758;2023-08-20T01:13:30;98841.75;;;20.80;76.63
37904;BME280;23738;50.422;18.758;2023-08-20T01:15:59;98844.89;;;20.79;76.78
37904;BME280;23738;50.422;18.758;2023-08-20T01:18:29;98844.98;;;20.77;76.81
37904;BME280;23738;50.422;18.758;2023-08-20T01:21:02;98844.55;;;20.74;76.67
37904;BME280;23738;50.422;18.758;2023-08-20T01:26:40;98848.14;;;20.69;76.62
37904;BME280;23738;50.422;18.758;2023-08-20T01:29:16;98847.98;;;20.68;76.66
37904;BME280;23738;50.422;18.758;2023-08-20T01:31:46;98852.00;;;20.65;76.60
37904;BME280;23738;50.422;18.758;2023-08-20T01:34:16;98852.66;;;20.62;76.90
37904;BME280;23738;50.422;18.758;2023-08-20T01:36:45;98849.80;;;20.59;76.96
37904;BME280;23738;50.422;18.758;2023-08-20T01:39:14;98851.73;;;20.58;77.39
37904;BME280;23738;50.422;18.758;2023-08-20T01:41:46;98848.73;;;20.58;77.52
37904;BME280;23738;50.422;18.758;2023-08-20T01:44:16;98849.84;;;20.59;77.73
37904;BME280;23738;50.422;18.758;2023-08-20T01:46:45;98847.65;;;20.61;77.88
37904;BME280;23738;50.422;18.758;2023-08-20T01:49:14;98851.31;;;20.62;77.81
37904;BME280;23738;50.422;18.758;2023-08-20T01:51:44;98847.54;;;20.61;77.88
37904;BME280;23738;50.422;18.758;2023-08-20T01:54:13;98848.23;;;20.60;77.86
37904;BME280;23738;50.422;18.758;2023-08-20T01:56:42;98847.27;;;20.58;77.77
37904;BME280;23738;50.422;18.758;2023-08-20T01:59:12;98850.11;;;20.57;77.85
37904;BME280;23738;50.422;18.758;2023-08-20T02:01:41;98853.45;;;20.59;77.93
37904;BME280;23738;50.422;18.758;2023-08-20T02:04:10;98851.77;;;20.58;78.03
37904;BME280;23738;50.422;18.758;2023-08-20T02:06:39;98855.48;;;20.57;78.08
37904;BME280;23738;50.422;18.758;2023-08-20T02:09:09;98853.05;;;20.56;78.05
37904;BME280;23738;50.422;18.758;2023-08-20T02:11:38;98855.36;;;20.52;77.98
37904;BME280;23738;50.422;18.758;2023-08-20T02:14:07;98854.55;;;20.50;77.93
37904;BME280;23738;50.422;18.758;2023-08-20T02:16:36;98856.55;;;20.47;77.97
37904;BME280;23738;50.422;18.758;2023-08-20T02:19:06;98855.63;;;20.45;77.88
37904;BME280;23738;50.422;18.758;2023-08-20T02:21:35;98855.98;;;20.44;77.98
37904;BME280;23738;50.422;18.758;2023-08-20T02:24:06;98858.77;;;20.42;77.89
37904;BME280;23738;50.422;18.758;2023-08-20T02:26:36;98859.70;;;20.39;77.96
37904;BME280;23738;50.422;18.758;2023-08-20T02:29:05;98861.66;;;20.36;77.97
37904;BME280;23738;50.422;18.758;2023-08-20T02:31:34;98861.83;;;20.34;77.89
37904;BME280;23738;50.422;18.758;2023-08-20T02:34:04;98864.39;;;20.35;78.07
37904;BME280;23738;50.422;18.758;2023-08-20T02:36:33;98862.34;;;20.34;78.11
37904;BME280;23738;50.422;18.758;2023-08-20T02:39:03;98860.02;;;20.33;78.29
37904;BME280;23738;50.422;18.758;2023-08-20T02:41:35;98859.46;;;20.32;78.37
37904;BME280;23738;50.422;18.758;2023-08-20T02:44:06;98861.31;;;20.30;78.38
37904;BME280;23738;50.422;18.758;2023-08-20T02:46:35;98858.39;;;20.27;78.33
37904;BME280;23738;50.422;18.758;2023-08-20T02:49:06;98857.30;;;20.25;78.19
37904;BME280;23738;50.422;18.758;2023-08-20T02:51:35;98858.27;;;20.24;78.41
37904;BME280;23738;50.422;18.758;2023-08-20T02:54:05;98857.23;;;20.24;78.50
37904;BME280;23738;50.422;18.758;2023-08-20T02:56:35;98858.86;;;20.22;78.41
37904;BME280;23738;50.422;18.758;2023-08-20T02:59:04;98856.58;;;20.17;78.42
37904;BME280;23738;50.422;18.758;2023-08-20T03:01:33;98859.17;;;20.14;78.43
37904;BME280;23738;50.422;18.758;2023-08-20T03:04:05;98863.69;;;20.14;78.67
37904;BME280;23738;50.422;18.758;2023-08-20T03:06:34;98863.58;;;20.15;78.63
37904;BME280;23738;50.422;18.758;2023-08-20T03:09:03;98865.20;;;20.16;78.80
37904;BME280;23738;50.422;18.758;2023-08-20T03:11:33;98868.79;;;20.15;78.75
37904;BME280;23738;50.422;18.758;2023-08-20T03:14:03;98872.89;;;20.13;78.70
37904;BME280;23738;50.422;18.758;2023-08-20T03:16:33;98873.71;;;20.09;78.49
37904;BME280;23738;50.422;18.758;2023-08-20T03:19:02;98870.77;;;20.05;78.57
37904;BME280;23738;50.422;18.758;2023-08-20T03:21:31;98868.72;;;20.04;78.65
37904;BME280;23738;50.422;18.758;2023-08-20T03:24:01;98873.16;;;20.04;78.61
37904;BME280;23738;50.422;18.758;2023-08-20T03:26:30;98876.49;;;20.03;78.64
37904;BME280;23738;50.422;18.758;2023-08-20T03:29:00;98876.85;;;20.01;78.72
37904;BME280;23738;50.422;18.758;2023-08-20T03:31:29;98875.42;;;19.99;78.58
37904;BME280;23738;50.422;18.758;2023-08-20T03:33:58;98874.95;;;19.96;78.64
37904;BME280;23738;50.422;18.758;2023-08-20T03:36:28;98874.48;;;19.96;78.64
37904;BME280;23738;50.422;18.758;2023-08-20T03:38:57;98874.11;;;19.97;78.83
37904;BME280;23738;50.422;18.758;2023-08-20T03:41:27;98873.61;;;19.97;78.69
37904;BME280;23738;50.422;18.758;2023-08-20T03:43:56;98875.55;;;19.96;78.71
37904;BME280;23738;50.422;18.758;2023-08-20T03:46:25;98879.94;;;19.94;78.87
37904;BME280;23738;50.422;18.758;2023-08-20T03:48:55;98881.85;;;19.92;78.68
37904;BME280;23738;50.422;18.758;2023-08-20T03:51:24;98887.70;;;19.89;78.57
37904;BME280;23738;50.422;18.758;2023-08-20T03:53:53;98881.19;;;19.87;78.61
37904;BME280;23738;50.422;18.758;2023-08-20T03:56:22;98886.17;;;19.87;78.55
37904;BME280;23738;50.422;18.758;2023-08-20T03:58:52;98886.02;;;19.86;78.66
37904;BME280;23738;50.422;18.758;2023-08-20T04:01:21;98886.84;;;19.83;78.68
37904;BME280;23738;50.422;18.758;2023-08-20T04:03:51;98886.30;;;19.80;78.66
37904;BME280;23738;50.422;18.758;2023-08-20T04:06:20;98887.38;;;19.79;78.69
37904;BME280;23738;50.422;18.758;2023-08-20T04:08:49;98892.10;;;19.80;78.78
37904;BME280;23738;50.422;18.758;2023-08-20T04:11:19;98888.52;;;19.82;78.79
37904;BME280;23738;50.422;18.758;2023-08-20T04:13:48;98891.30;;;19.84;78.89
37904;BME280;23738;50.422;18.758;2023-08-20T04:16:17;98890.36;;;19.86;78.98
37904;BME280;23738;50.422;18.758;2023-08-20T04:18:47;98894.70;;;19.86;79.02
37904;BME280;23738;50.422;18.758;2023-08-20T04:21:16;98896.80;;;19.86;78.95
37904;BME280;23738;50.422;18.758;2023-08-20T04:23:45;98898.63;;;19.88;79.11
37904;BME280;23738;50.422;18.758;2023-08-20T04:26:15;98896.65;;;19.93;79.20
37904;BME280;23738;50.422;18.758;2023-08-20T04:28:44;98899.95;;;19.99;79.29
37904;BME280;23738;50.422;18.758;2023-08-20T04:31:13;98894.71;;;20.06;79.39
37904;BME280;23738;50.422;18.758;2023-08-20T04:33:43;98902.29;;;20.13;79.36
37904;BME280;23738;50.422;18.758;2023-08-20T04:36:12;98906.56;;;20.21;79.76
37904;BME280;23738;50.422;18.758;2023-08-20T04:38:41;98908.98;;;20.27;79.69
37904;BME280;23738;50.422;18.758;2023-08-20T04:41:10;98911.11;;;20.31;79.80
37904;BME280;23738;50.422;18.758;2023-08-20T04:43:40;98911.38;;;20.38;80.02
37904;BME280;23738;50.422;18.758;2023-08-20T04:46:09;98911.30;;;20.46;80.03
37904;BME280;23738;50.422;18.758;2023-08-20T04:48:38;98913.45;;;20.53;80.28
37904;BME280;23738;50.422;18.758;2023-08-20T04:51:08;98911.79;;;20.58;80.41
37904;BME280;23738;50.422;18.758;2023-08-20T04:53:38;98909.24;;;20.63;80.62
37904;BME280;23738;50.422;18.758;2023-08-20T04:56:08;98904.62;;;20.66;80.77
37904;BME280;23738;50.422;18.758;2023-08-20T04:58:37;98906.71;;;20.70;81.03
37904;BME280;23738;50.422;18.758;2023-08-20T05:01:06;98907.75;;;20.77;81.53
37904;BME280;23738;50.422;18.758;2023-08-20T05:03:36;98905.89;;;20.87;81.70
37904;BME280;23738;50.422;18.758;2023-08-20T05:06:06;98903.36;;;20.98;82.07
37904;BME280;23738;50.422;18.758;2023-08-20T05:08:35;98907.35;;;21.15;82.30
37904;BME280;23738;50.422;18.758;2023-08-20T05:11:04;98914.77;;;21.29;82.45
37904;BME280;23738;50.422;18.758;2023-08-20T05:13:33;98915.89;;;21.47;82.95
37904;BME280;23738;50.422;18.758;2023-08-20T05:16:03;98915.50;;;21.65;83.30
37904;BME280;23738;50.422;18.758;2023-08-20T05:18:32;98916.34;;;21.82;83.51
37904;BME280;23738;50.422;18.758;2023-08-20T05:21:01;98919.96;;;22.00;83.76
37904;BME280;23738;50.422;18.758;2023-08-20T05:23:31;98921.98;;;22.24;84.08
37904;BME280;23738;50.422;18.758;2023-08-20T05:26:00;98919.66;;;22.50;84.36
37904;BME280;23738;50.422;18.758;2023-08-20T05:28:29;98917.55;;;22.74;84.51
37904;BME280;23738;50.422;18.758;2023-08-20T05:30:59;98917.40;;;22.96;84.75
37904;BME280;23738;50.422;18.758;2023-08-20T05:33:28;98923.73;;;23.14;84.80
37904;BME280;23738;50.422;18.758;2023-08-20T05:35:58;98926.46;;;23.27;84.95
37904;BME280;23738;50.422;18.758;2023-08-20T05:38:28;98925.05;;;23.34;84.67
37904;BME280;23738;50.422;18.758;2023-08-20T05:40:57;98926.66;;;23.43;84.75
37904;BME280;23738;50.422;18.758;2023-08-20T05:43:26;98926.10;;;23.61;85.01
37904;BME280;23738;50.422;18.758;2023-08-20T05:45:56;98927.75;;;23.81;85.11
37904;BME280;23738;50.422;18.758;2023-08-20T05:48:25;98926.86;;;23.88;84.79
37904;BME280;23738;50.422;18.758;2023-08-20T05:50:55;98928.68;;;23.90;84.47
37904;BME280;23738;50.422;18.758;2023-08-20T05:53:24;98927.66;;;24.00;84.56
37904;BME280;23738;50.422;18.758;2023-08-20T05:55:54;98931.95;;;24.08;84.38
37904;BME280;23738;50.422;18.758;2023-08-20T05:58:23;98935.09;;;24.21;84.13
37904;BME280;23738;50.422;18.758;2023-08-20T06:00:52;98933.64;;;24.32;84.10
37904;BME280;23738;50.422;18.758;2023-08-20T06:03:21;98935.28;;;24.45;83.86
37904;BME280;23738;50.422;18.758;2023-08-20T06:05:51;98933.20;;;24.58;84.16
37904;BME280;23738;50.422;18.758;2023-08-20T06:08:20;98930.33;;;24.74;84.01
37904;BME280;23738;50.422;18.758;2023-08-20T06:10:49;98932.83;;;24.87;83.86
37904;BME280;23738;50.422;18.758;2023-08-20T06:13:20;98930.70;;;25.04;83.87
37904;BME280;23738;50.422;18.758;2023-08-20T06:15:49;98933.54;;;25.25;83.46
37904;BME280;23738;50.422;18.758;2023-08-20T06:18:18;98934.92;;;25.43;83.19
37904;BME280;23738;50.422;18.758;2023-08-20T06:20:47;98937.36;;;25.59;83.01
37904;BME280;23738;50.422;18.758;2023-08-20T06:23:17;98940.94;;;25.75;82.60
37904;BME280;23738;50.422;18.758;2023-08-20T06:25:46;98942.21;;;25.80;81.61
37904;BME280;23738;50.422;18.758;2023-08-20T06:28:15;98943.65;;;25.88;82.13
37904;BME280;23738;50.422;18.758;2023-08-20T06:30:45;98938.11;;;26.07;81.89
37904;BME280;23738;50.422;18.758;2023-08-20T06:33:15;98937.37;;;26.25;81.72
37904;BME280;23738;50.422;18.758;2023-08-20T06:35:44;98939.70;;;26.43;81.15
37904;BME280;23738;50.422;18.758;2023-08-20T06:38:13;98941.96;;;26.58;80.72
37904;BME280;23738;50.422;18.758;2023-08-20T06:40:42;98943.86;;;26.71;80.45
37904;BME280;23738;50.422;18.758;2023-08-20T06:43:11;98941.42;;;26.86;80.18
37904;BME280;23738;50.422;18.758;2023-08-20T06:45:41;98942.54;;;26.99;79.94
37904;BME280;23738;50.422;18.758;2023-08-20T06:48:10;98941.98;;;27.09;79.61
37904;BME280;23738;50.422;18.758;2023-08-20T06:50:41;98945.35;;;27.25;79.41
37904;BME280;23738;50.422;18.758;2023-08-20T06:53:10;98947.41;;;27.42;79.38
37904;BME280;23738;50.422;18.758;2023-08-20T06:55:39;98946.89;;;27.61;78.58
37904;BME280;23738;50.422;18.758;2023-08-20T06:58:08;98944.54;;;27.75;78.23
37904;BME280;23738;50.422;18.758;2023-08-20T07:00:38;98949.63;;;27.93;77.97
37904;BME280;23738;50.422;18.758;2023-08-20T07:03:07;98948.27;;;28.03;77.31
37904;BME280;23738;50.422;18.758;2023-08-20T07:05:37;98950.92;;;28.17;77.12
37904;BME280;23738;50.422;18.758;2023-08-20T07:08:06;98954.45;;;28.33;76.48
37904;BME280;23738;50.422;18.758;2023-08-20T07:10:36;98951.84;;;28.49;76.40
37904;BME280;23738;50.422;18.758;2023-08-20T07:13:05;98955.29;;;28.63;76.06
37904;BME280;23738;50.422;18.758;2023-08-20T07:15:35;98951.71;;;28.80;75.66
37904;BME280;23738;50.422;18.758;2023-08-20T07:18:05;98952.13;;;28.94;75.06
37904;BME280;23738;50.422;18.758;2023-08-20T07:20:34;98954.57;;;29.01;73.80
37904;BME280;23738;50.422;18.758;2023-08-20T07:23:04;98957.83;;;29.10;74.11
37904;BME280;23738;50.422;18.758;2023-08-20T07:25:33;98955.13;;;29.28;73.51
37904;BME280;23738;50.422;18.758;2023-08-20T07:28:02;98958.40;;;29.41;73.03
37904;BME280;23738;50.422;18.758;2023-08-20T07:33:01;98957.46;;;29.78;72.64
37904;BME280;23738;50.422;18.758;2023-08-20T07:35:30;98956.95;;;29.92;71.75
37904;BME280;23738;50.422;18.758;2023-08-20T07:38:00;98956.95;;;29.99;71.02
37904;BME280;23738;50.422;18.758;2023-08-20T07:40:29;98958.42;;;30.10;70.53
37904;BME280;23738;50.422;18.758;2023-08-20T07:42:58;98957.17;;;30.26;70.40
37904;BME280;23738;50.422;18.758;2023-08-20T07:45:28;98962.23;;;30.38;68.91
37904;BME280;23738;50.422;18.758;2023-08-20T07:47:57;98962.17;;;30.41;68.94
37904;BME280;23738;50.422;18.758;2023-08-20T07:50:27;98966.45;;;30.53;68.59
37904;BME280;23738;50.422;18.758;2023-08-20T07:52:56;98962.77;;;30.67;67.98
37904;BME280;23738;50.422;18.758;2023-08-20T07:55:25;98968.44;;;30.71;66.96
37904;BME280;23738;50.422;18.758;2023-08-20T07:57:54;98969.04;;;30.77;67.52
37904;BME280;23738;50.422;18.758;2023-08-20T08:00:24;98972.33;;;30.95;67.65
37904;BME280;23738;50.422;18.758;2023-08-20T08:02:53;98978.41;;;31.12;66.67
37904;BME280;23738;50.422;18.758;2023-08-20T08:05:22;98979.86;;;31.28;66.45
37904;BME280;23738;50.422;18.758;2023-08-20T08:07:52;98979.89;;;31.45;65.77
37904;BME280;23738;50.422;18.758;2023-08-20T08:10:21;98981.86;;;31.54;65.42
37904;BME280;23738;50.422;18.758;2023-08-20T08:12:51;98980.18;;;31.63;64.83
37904;BME280;23738;50.422;18.758;2023-08-20T08:15:20;98980.92;;;31.73;64.47
37904;BME280;23738;50.422;18.758;2023-08-20T08:17:49;98981.76;;;31.89;63.96
37904;BME280;23738;50.422;18.758;2023-08-20T08:20:19;98981.05;;;32.07;64.09
37904;BME280;23738;50.422;18.758;2023-08-20T08:22:48;98980.27;;;32.25;63.55
37904;BME280;23738;50.422;18.758;2023-08-20T08:25:17;98979.42;;;32.32;62.52
37904;BME280;23738;50.422;18.758;2023-08-20T08:27:47;98978.33;;;32.36;62.75
37904;BME280;23738;50.422;18.758;2023-08-20T08:30:17;98982.87;;;32.46;61.54
37904;BME280;23738;50.422;18.758;2023-08-20T08:32:46;98984.23;;;32.47;62.32
37904;BME280;23738;50.422;18.758;2023-08-20T08:35:16;98982.23;;;32.52;61.44
37904;BME280;23738;50.422;18.758;2023-08-20T08:37:45;98984.49;;;32.56;61.65
37904;BME280;23738;50.422;18.758;2023-08-20T08:40:15;98980.00;;;32.69;61.47
37904;BME280;23738;50.422;18.758;2023-08-20T08:42:48;98982.75;;;32.80;60.86
37904;BME280;23738;50.422;18.758;2023-08-20T08:45:19;98986.27;;;32.86;60.35
37904;BME280;23738;50.422;18.758;2023-08-20T08:47:49;98978.15;;;32.95;59.91
37904;BME280;23738;50.422;18.758;2023-08-20T08:50:19;98981.28;;;33.11;59.93
37904;BME280;23738;50.422;18.758;2023-08-20T08:52:48;98978.85;;;33.15;59.74
37904;BME280;23738;50.422;18.758;2023-08-20T08:55:19;98982.31;;;33.22;59.20
37904;BME280;23738;50.422;18.758;2023-08-20T08:57:49;98982.27;;;33.31;59.62
37904;BME280;23738;50.422;18.758;2023-08-20T09:00:18;98978.55;;;33.46;59.33
37904;BME280;23738;50.422;18.758;2023-08-20T09:02:47;98982.68;;;33.60;59.02
37904;BME280;23738;50.422;18.758;2023-08-20T09:05:17;98982.29;;;33.75;58.64
37904;BME280;23738;50.422;18.758;2023-08-20T09:07:46;98979.49;;;33.92;57.89
37904;BME280;23738;50.422;18.758;2023-08-20T09:10:17;98978.88;;;33.88;56.29
37904;BME280;23738;50.422;18.758;2023-08-20T09:12:48;98979.86;;;33.87;56.42
37904;BME280;23738;50.422;18.758;2023-08-20T09:15:18;98977.88;;;33.81;55.96
37904;BME280;23738;50.422;18.758;2023-08-20T09:17:47;98979.56;;;33.80;56.39
37904;BME280;23738;50.422;18.758;2023-08-20T09:20:17;98983.73;;;33.86;56.49
37904;BME280;23738;50.422;18.758;2023-08-20T09:23:02;98979.08;;;33.79;57.33
37904;BME280;23738;50.422;18.758;2023-08-20T09:25:31;98976.87;;;34.01;57.16
37904;BME280;23738;50.422;18.758;2023-08-20T09:28:04;98974.87;;;34.27;56.66
37904;BME280;23738;50.422;18.758;2023-08-20T09:30:33;98979.73;;;34.47;56.27
37904;BME280;23738;50.422;18.758;2023-08-20T09:33:09;98977.56;;;34.56;55.53
37904;BME280;23738;50.422;18.758;2023-08-20T09:35:39;98978.05;;;34.51;54.33
37904;BME280;23738;50.422;18.758;2023-08-20T09:38:20;98977.92;;;34.37;54.61
37904;BME280;23738;50.422;18.758;2023-08-20T09:40:51;98983.09;;;34.39;55.14
37904;BME280;23738;50.422;18.758;2023-08-20T09:43:22;98983.24;;;34.52;55.42
37904;BME280;23738;50.422;18.758;2023-08-20T09:45:55;98982.27;;;34.67;54.63
37904;BME280;23738;50.422;18.758;2023-08-20T09:48:28;98981.58;;;34.77;53.99
37904;BME280;23738;50.422;18.758;2023-08-20T09:51:05;98981.86;;;34.84;53.77
37904;BME280;23738;50.422;18.758;2023-08-20T09:53:42;98977.54;;;34.98;53.59
37904;BME280;23738;50.422;18.758;2023-08-20T09:56:20;98979.79;;;35.11;53.28
37904;BME280;23738;50.422;18.758;2023-08-20T09:58:51;98978.06;;;35.25;53.16
37904;BME280;23738;50.422;18.758;2023-08-20T10:01:23;98978.70;;;35.39;52.52
37904;BME280;23738;50.422;18.758;2023-08-20T10:03:52;98982.86;;;35.51;52.51
37904;BME280;23738;50.422;18.758;2023-08-20T10:06:22;98980.24;;;35.59;51.74
37904;BME280;23738;50.422;18.758;2023-08-20T10:08:52;98978.67;;;35.57;51.42
37904;BME280;23738;50.422;18.758;2023-08-20T10:11:22;98978.59;;;35.56;51.63
37904;BME280;23738;50.422;18.758;2023-08-20T10:13:51;98976.95;;;35.59;50.68
37904;BME280;23738;50.422;18.758;2023-08-20T10:16:22;98980.66;;;35.51;51.12
37904;BME280;23738;50.422;18.758;2023-08-20T10:18:52;98977.98;;;35.56;51.56
37904;BME280;23738;50.422;18.758;2023-08-20T10:21:25;98977.44;;;35.63;51.90
37904;BME280;23738;50.422;18.758;2023-08-20T10:23:55;98973.23;;;35.80;51.67
37904;BME280;23738;50.422;18.758;2023-08-20T10:26:25;98975.27;;;35.99;51.27
37904;BME280;23738;50.422;18.758;2023-08-20T10:32:01;98977.05;;;36.23;50.21
37904;BME280;23738;50.422;18.758;2023-08-20T10:34:37;98975.30;;;36.33;49.35
37904;BME280;23738;50.422;18.758;2023-08-20T10:37:12;98974.31;;;36.42;48.90
37904;BME280;23738;50.422;18.758;2023-08-20T10:39:41;98978.75;;;36.40;48.02
37904;BME280;23738;50.422;18.758;2023-08-20T10:42:24;98972.91;;;36.32;47.49
37904;BME280;23738;50.422;18.758;2023-08-20T10:45:02;98969.80;;;36.34;47.36
37904;BME280;23738;50.422;18.758;2023-08-20T10:47:42;98966.04;;;36.41;46.96
37904;BME280;23738;50.422;18.758;2023-08-20T10:50:15;98962.21;;;36.43;46.66
37904;BME280;23738;50.422;18.758;2023-08-20T10:52:49;98960.81;;;36.50;46.44
37904;BME280;23738;50.422;18.758;2023-08-20T10:55:23;98958.56;;;36.55;46.08
37904;BME280;23738;50.422;18.758;2023-08-20T10:57:57;98962.45;;;36.50;45.14
37904;BME280;23738;50.422;18.758;2023-08-20T11:00:27;98961.10;;;36.38;45.16
37904;BME280;23738;50.422;18.758;2023-08-20T11:02:58;98962.40;;;36.33;44.76
37904;BME280;23738;50.422;18.758;2023-08-20T11:05:28;98959.10;;;36.33;44.41
37904;BME280;23738;50.422;18.758;2023-08-20T11:07:58;98955.66;;;36.45;44.75
37904;BME280;23738;50.422;18.758;2023-08-20T11:10:28;98952.33;;;36.58;44.56
37904;BME280;23738;50.422;18.758;2023-08-20T11:12:57;98950.71;;;36.63;44.19
37904;BME280;23738;50.422;18.758;2023-08-20T11:15:31;98950.82;;;36.71;44.24
37904;BME280;23738;50.422;18.758;2023-08-20T11:18:02;98946.45;;;36.77;44.07
37904;BME280;23738;50.422;18.758;2023-08-20T11:20:33;98947.52;;;36.78;43.93
37904;BME280;23738;50.422;18.758;2023-08-20T11:23:04;98943.90;;;36.71;43.06
37904;BME280;23738;50.422;18.758;2023-08-20T11:25:34;98942.73;;;36.54;42.82
37904;BME280;23738;50.422;18.758;2023-08-20T11:28:04;98944.48;;;36.43;42.45
37904;BME280;23738;50.422;18.758;2023-08-20T11:30:34;98942.60;;;36.40;42.29
37904;BME280;23738;50.422;18.758;2023-08-20T11:33:04;98941.70;;;36.35;42.52
37904;BME280;23738;50.422;18.758;2023-08-20T11:35:34;98943.81;;;36.37;42.26
37904;BME280;23738;50.422;18.758;2023-08-20T11:38:04;98942.31;;;36.30;42.18
37904;BME280;23738;50.422;18.758;2023-08-20T11:40:33;98946.66;;;36.35;42.19
37904;BME280;23738;50.422;18.758;2023-08-20T11:43:03;98942.63;;;36.42;42.00
37904;BME280;23738;50.422;18.758;2023-08-20T11:45:33;98946.54;;;36.48;41.97
37904;BME280;23738;50.422;18.758;2023-08-20T11:48:02;98939.45;;;36.44;41.39
37904;BME280;23738;50.422;18.758;2023-08-20T11:50:32;98940.99;;;36.31;41.11
37904;BME280;23738;50.422;18.758;2023-08-20T11:53:01;98939.48;;;36.41;41.76
37904;BME280;23738;50.422;18.758;2023-08-20T11:55:31;98936.00;;;36.55;41.70
37904;BME280;23738;50.422;18.758;2023-08-20T11:58:00;98935.44;;;36.55;40.80
37904;BME280;23738;50.422;18.758;2023-08-20T12:00:32;98936.64;;;36.33;40.62
37904;BME280;23738;50.422;18.758;2023-08-20T12:03:01;98932.77;;;36.35;41.13
37904;BME280;23738;50.422;18.758;2023-08-20T12:05:32;98933.84;;;36.46;41.02
37904;BME280;23738;50.422;18.758;2023-08-20T12:08:03;98934.27;;;36.33;40.52
37904;BME280;23738;50.422;18.758;2023-08-20T12:10:34;98936.92;;;36.19;40.73
37904;BME280;23738;50.422;18.758;2023-08-20T12:13:03;98935.15;;;36.22;40.92
37904;BME280;23738;50.422;18.758;2023-08-20T12:15:33;98932.15;;;36.19;40.25
37904;BME280;23738;50.422;18.758;2023-08-20T12:18:04;98933.09;;;36.16;40.71
37904;BME280;23738;50.422;18.758;2023-08-20T12:20:34;98935.35;;;36.25;40.86
37904;BME280;23738;50.422;18.758;2023-08-20T12:23:05;98936.34;;;36.23;40.48
37904;BME280;23738;50.422;18.758;2023-08-20T12:25:35;98939.71;;;36.17;40.35
37904;BME280;23738;50.422;18.758;2023-08-20T12:28:06;98940.08;;;36.16;40.64
37904;BME280;23738;50.422;18.758;2023-08-20T12:30:36;98935.88;;;36.20;40.51
37904;BME280;23738;50.422;18.758;2023-08-20T12:33:06;98934.79;;;36.24;40.55
37904;BME280;23738;50.422;18.758;2023-08-20T12:35:36;98930.64;;;36.32;40.91
37904;BME280;23738;50.422;18.758;2023-08-20T12:38:05;98932.05;;;36.43;40.79
37904;BME280;23738;50.422;18.758;2023-08-20T12:40:35;98928.64;;;36.41;40.41
37904;BME280;23738;50.422;18.758;2023-08-20T12:43:05;98924.51;;;36.28;40.11
37904;BME280;23738;50.422;18.758;2023-08-20T12:45:34;98925.81;;;36.18;40.25
37904;BME280;23738;50.422;18.758;2023-08-20T12:48:05;98925.48;;;36.20;40.48
37904;BME280;23738;50.422;18.758;2023-08-20T12:50:35;98926.66;;;36.19;40.35
37904;BME280;23738;50.422;18.758;2023-08-20T12:53:05;98931.08;;;36.11;40.27
37904;BME280;23738;50.422;18.758;2023-08-20T12:55:34;98928.25;;;36.07;40.13
37904;BME280;23738;50.422;18.758;2023-08-20T12:58:03;98927.16;;;36.11;40.51
37904;BME280;23738;50.422;18.758;2023-08-20T13:00:33;98923.48;;;36.21;40.26
37904;BME280;23738;50.422;18.758;2023-08-20T13:03:03;98922.67;;;36.27;40.19
37904;BME280;23738;50.422;18.758;2023-08-20T13:05:34;98926.58;;;36.23;40.05
37904;BME280;23738;50.422;18.758;2023-08-20T13:08:05;98923.50;;;36.16;40.08
37904;BME280;23738;50.422;18.758;2023-08-20T13:10:36;98921.84;;;36.16;39.96
37904;BME280;23738;50.422;18.758;2023-08-20T13:13:09;98920.15;;;36.07;39.54